createdAt,value
2019-01-24T00:02:22.436Z,57.90
2019-01-24T00:09:16.402Z,59.57
2019-01-24T00:11:47.501Z,59.93
2019-01-24T00:18:06.394Z,58.10
2019-01-24T00:20:38.373Z,58.87
2019-01-24T00:23:09.228Z,57.40
2019-01-24T00:25:40.050Z,59.77
2019-01-24T00:28:10.841Z,61.67
2019-01-24T00:30:41.989Z,63.07
2019-01-24T00:33:13.014Z,58.07
2019-01-24T00:35:44.080Z,62.00
2019-01-24T00:38:15.333Z,57.47
2019-01-24T00:40:46.105Z,58.87
2019-01-24T00:43:17.196Z,63.43
2019-01-24T00:45:47.979Z,58.60
2019-01-24T00:48:19.336Z,59.83
2019-01-24T00:50:50.396Z,56.20
2019-01-24T00:53:21.247Z,60.07
2019-01-24T00:55:52.020Z,61.30
2019-01-24T00:58:23.348Z,62.53
2019-01-24T01:00:54.353Z,60.03
2019-01-24T01:03:25.155Z,64.83
2019-01-24T01:05:56.067Z,58.00
2019-01-24T01:08:27.815Z,60.17
2019-01-24T01:10:58.666Z,59.70
2019-01-24T01:13:29.753Z,58.97
2019-01-24T01:16:00.522Z,57.73
2019-01-24T01:18:31.308Z,56.83
2019-01-24T01:21:02.149Z,55.90
2019-01-24T01:23:33.165Z,54.93
2019-01-24T01:26:04.085Z,57.53
2019-01-24T01:28:35.445Z,57.80
2019-01-24T01:31:06.767Z,56.80
2019-01-24T01:33:38.717Z,57.03
2019-01-24T01:36:09.821Z,58.33
2019-01-24T01:38:40.612Z,58.10
2019-01-24T01:41:11.574Z,54.77
2019-01-24T01:43:42.367Z,61.83
2019-01-24T01:46:13.468Z,58.70
2019-01-24T01:48:44.415Z,58.93
2019-01-24T01:51:15.535Z,59.87
2019-01-24T01:53:48.129Z,61.10
2019-01-24T01:56:19.171Z,60.30
2019-01-24T01:58:50.526Z,58.07
2019-01-24T02:01:21.304Z,55.90
2019-01-24T02:03:52.633Z,57.70
2019-01-24T02:06:23.708Z,55.43
2019-01-24T02:08:54.515Z,58.73
2019-01-24T02:11:25.669Z,60.17
2019-01-24T02:13:56.787Z,58.10
2019-01-24T02:16:27.716Z,54.90
2019-01-24T02:18:58.580Z,55.30
2019-01-24T02:21:30.227Z,59.10
2019-01-24T02:24:01.329Z,56.10
2019-01-24T02:26:32.095Z,58.50
2019-01-24T02:29:03.122Z,56.13
2019-01-24T02:31:37.100Z,63.07
2019-01-24T02:34:07.962Z,55.80
2019-01-24T02:36:38.750Z,59.27
2019-01-24T02:39:09.846Z,56.90
2019-01-24T02:41:40.650Z,61.43
2019-01-24T02:44:11.465Z,59.23
2019-01-24T02:46:42.761Z,61.63
2019-01-24T02:49:13.547Z,58.37
2019-01-24T02:51:44.409Z,59.50
2019-01-24T02:54:15.234Z,59.67
2019-01-24T02:56:46.568Z,55.80
2019-01-24T02:59:17.369Z,55.87
2019-01-24T03:01:48.681Z,56.63
2019-01-24T03:04:19.770Z,57.63
2019-01-24T03:06:50.780Z,58.93
2019-01-24T03:09:22.031Z,58.83
2019-01-24T03:11:53.966Z,58.50
2019-01-24T03:14:24.999Z,60.67
2019-01-24T03:16:55.840Z,58.53
2019-01-24T03:19:26.868Z,56.87
2019-01-24T03:21:57.877Z,60.97
2019-01-24T03:24:29.021Z,57.13
2019-01-24T03:27:00.096Z,57.00
2019-01-24T03:29:31.126Z,55.03
2019-01-24T03:32:02.176Z,59.10
2019-01-24T03:34:33.280Z,61.57
2019-01-24T03:37:04.423Z,59.93
2019-01-24T03:39:35.447Z,57.57
2019-01-24T03:42:06.478Z,59.60
2019-01-24T03:44:38.022Z,61.20
2019-01-24T03:47:09.178Z,55.50
2019-01-24T03:49:40.525Z,59.53
2019-01-24T03:52:11.340Z,60.50
2019-01-24T03:54:42.458Z,56.37
2019-01-24T03:57:13.537Z,63.67
2019-01-24T03:59:44.406Z,56.90
2019-01-24T04:02:15.345Z,57.17
2019-01-24T04:04:46.835Z,60.27
2019-01-24T04:07:18.592Z,61.27
2019-01-24T04:09:49.441Z,59.70
2019-01-24T04:12:20.330Z,62.93
2019-01-24T04:14:51.187Z,67.00
2019-01-24T04:17:22.212Z,62.97
2019-01-24T04:19:53.298Z,63.53
2019-01-24T04:22:24.557Z,59.90
2019-01-24T04:24:55.584Z,59.17
2019-01-24T04:27:26.596Z,59.47
2019-01-24T04:29:57.763Z,63.33
2019-01-24T04:32:28.531Z,63.00
2019-01-24T04:34:59.330Z,62.17
2019-01-24T04:37:30.341Z,60.73
2019-01-24T04:40:01.402Z,60.33
2019-01-24T04:42:32.170Z,56.60
2019-01-24T04:45:02.961Z,61.77
2019-01-24T04:47:33.969Z,57.97
2019-01-24T04:50:05.486Z,55.60
2019-01-24T04:52:36.334Z,52.37
2019-01-24T04:55:08.663Z,57.90
2019-01-24T04:57:39.747Z,59.33
2019-01-24T05:00:14.190Z,55.13
2019-01-24T05:02:45.046Z,56.70
2019-01-24T05:05:16.143Z,59.50
2019-01-24T05:07:47.087Z,57.27
2019-01-24T05:10:18.124Z,57.73
2019-01-24T05:12:49.373Z,59.60
2019-01-24T05:15:20.431Z,53.07
2019-01-24T05:17:51.444Z,58.07
2019-01-24T05:20:22.303Z,57.57
2019-01-24T05:22:53.166Z,53.27
2019-01-24T05:25:24.272Z,54.83
2019-01-24T05:27:55.340Z,54.87
2019-01-24T05:30:27.745Z,59.77
2019-01-24T05:32:59.894Z,59.63
2019-01-24T05:35:34.874Z,62.97
2019-01-24T05:38:03.656Z,62.27
2019-01-24T05:40:34.759Z,62.13
2019-01-24T05:43:05.851Z,59.67
2019-01-24T05:45:36.635Z,57.90
2019-01-24T05:48:07.427Z,58.93
2019-01-24T05:50:38.232Z,57.13
2019-01-24T05:53:09.050Z,60.23
2019-01-24T05:55:40.022Z,56.73
2019-01-24T05:58:11.277Z,63.20
2019-01-24T06:00:44.722Z,61.03
2019-01-24T06:03:15.730Z,63.73
2019-01-24T06:05:47.067Z,63.03
2019-01-24T06:08:18.048Z,67.67
2019-01-24T06:10:49.956Z,64.80
2019-01-24T06:13:21.011Z,60.67
2019-01-24T06:15:52.048Z,62.87
2019-01-24T06:18:23.364Z,62.27
2019-01-24T06:20:54.321Z,66.67
2019-01-24T06:23:25.411Z,63.60
2019-01-24T06:25:56.270Z,60.17
2019-01-24T06:28:27.045Z,60.07
2019-01-24T06:30:57.984Z,61.07
2019-01-24T06:33:28.985Z,55.87
2019-01-24T06:36:00.231Z,61.07
2019-01-24T06:38:31.299Z,59.97
2019-01-24T06:41:02.103Z,68.73
2019-01-24T06:43:32.880Z,62.03
2019-01-24T06:46:03.830Z,59.33
2019-01-24T06:48:35.210Z,60.07
2019-01-24T06:51:06.173Z,60.80
2019-01-24T06:53:37.096Z,60.90
2019-01-24T06:56:08.335Z,60.63
2019-01-24T06:58:39.191Z,63.67
2019-01-24T07:01:09.998Z,64.70
2019-01-24T07:03:40.867Z,61.73
2019-01-24T07:06:11.772Z,61.40
2019-01-24T07:08:42.877Z,65.23
2019-01-24T07:11:13.791Z,66.57
2019-01-24T07:13:45.381Z,60.33
2019-01-24T07:16:16.383Z,69.10
2019-01-24T07:18:47.241Z,62.10
2019-01-24T07:21:18.024Z,62.20
2019-01-24T07:23:49.064Z,65.10
2019-01-24T07:26:20.242Z,60.30
2019-01-24T07:28:51.142Z,61.67
2019-01-24T07:31:22.040Z,65.83
2019-01-24T07:33:53.337Z,65.17
2019-01-24T07:36:24.403Z,62.73
2019-01-24T07:38:55.217Z,71.23
2019-01-24T07:41:26.048Z,68.53
2019-01-24T07:43:57.219Z,67.43
2019-01-24T07:46:29.281Z,65.50
2019-01-24T07:49:00.245Z,65.30
2019-01-24T07:51:31.364Z,66.47
2019-01-24T07:54:02.477Z,64.30
2019-01-24T07:56:33.245Z,64.57
2019-01-24T07:59:04.578Z,62.00
2019-01-24T08:01:35.774Z,71.13
2019-01-24T08:04:06.873Z,65.97
2019-01-24T08:06:37.651Z,67.10
2019-01-24T08:09:09.144Z,65.77
2019-01-24T08:11:39.914Z,63.50
2019-01-24T08:14:11.451Z,67.97
2019-01-24T08:16:42.299Z,62.83
2019-01-24T08:19:13.152Z,64.47
2019-01-24T08:21:43.966Z,62.77
2019-01-24T08:24:14.951Z,66.73
2019-01-24T08:26:46.016Z,62.23
2019-01-24T08:29:17.042Z,68.27
2019-01-24T08:31:48.053Z,66.63
2019-01-24T08:34:18.862Z,68.00
2019-01-24T08:36:49.902Z,69.43
2019-01-24T08:39:20.772Z,73.87
2019-01-24T08:41:51.638Z,73.43
2019-01-24T08:44:22.489Z,76.10
2019-01-24T08:46:53.345Z,73.77
2019-01-24T08:49:24.139Z,78.97
2019-01-24T08:51:55.163Z,73.37
2019-01-24T08:54:29.735Z,73.47
2019-01-24T08:56:58.981Z,76.80
2019-01-24T08:59:30.057Z,71.90
2019-01-24T09:02:01.998Z,77.53
2019-01-24T09:04:32.802Z,78.73
2019-01-24T09:07:03.848Z,80.77
2019-01-24T09:09:35.503Z,78.43
2019-01-24T09:12:06.433Z,81.60
2019-01-24T09:14:37.292Z,85.87
2019-01-24T09:17:08.553Z,78.20
2019-01-24T09:19:39.416Z,83.03
2019-01-24T09:22:10.198Z,83.87
2019-01-24T09:24:41.464Z,82.33
2019-01-24T09:27:12.228Z,86.10
2019-01-24T09:29:43.156Z,75.90
2019-01-24T09:32:14.401Z,79.67
2019-01-24T09:34:45.268Z,74.87
2019-01-24T09:37:16.134Z,79.73
2019-01-24T09:39:47.006Z,80.53
2019-01-24T09:42:18.133Z,78.83
2019-01-24T09:44:49.094Z,85.27
2019-01-24T09:47:19.969Z,81.57
2019-01-24T09:49:50.906Z,76.47
2019-01-24T09:52:22.012Z,86.47
2019-01-24T09:54:52.797Z,82.03
2019-01-24T09:57:23.716Z,81.37
2019-01-24T09:59:54.516Z,79.93
2019-01-24T10:02:25.549Z,79.30
2019-01-24T10:04:58.939Z,79.57
2019-01-24T10:07:29.957Z,79.57
2019-01-24T10:10:00.797Z,86.33
2019-01-24T10:12:31.577Z,86.17
2019-01-24T10:15:02.664Z,91.53
2019-01-24T10:17:33.848Z,98.73
2019-01-24T10:20:06.386Z,92.50
2019-01-24T10:22:37.374Z,87.07
2019-01-24T10:25:15.571Z,86.77
2019-01-24T10:27:46.487Z,86.83
2019-01-24T10:30:18.957Z,90.17
2019-01-24T10:32:49.895Z,99.63
2019-01-24T10:35:20.831Z,94.90
2019-01-24T10:37:51.788Z,93.27
2019-01-24T10:40:24.621Z,99.53
2019-01-24T10:42:55.697Z,100.60
2019-01-24T10:45:26.566Z,91.03
2019-01-24T10:47:57.665Z,93.50
2019-01-24T10:50:28.972Z,92.40
2019-01-24T10:52:59.824Z,95.13
2019-01-24T10:55:31.112Z,97.90
2019-01-24T10:58:02.896Z,98.53
2019-01-24T11:00:36.510Z,102.77
2019-01-24T11:03:09.501Z,98.97
2019-01-24T11:05:40.361Z,96.43
2019-01-24T11:08:11.477Z,98.83
2019-01-24T11:10:42.661Z,104.90
2019-01-24T11:13:13.593Z,97.77
2019-01-24T11:15:44.466Z,100.50
2019-01-24T11:18:15.319Z,104.63
2019-01-24T11:20:46.259Z,110.37
2019-01-24T11:23:17.075Z,100.17
2019-01-24T11:25:48.023Z,96.00
2019-01-24T11:28:18.950Z,100.50
2019-01-24T11:30:49.993Z,102.07
2019-01-24T11:33:21.018Z,97.70
2019-01-24T11:35:51.898Z,95.07
2019-01-24T11:38:23.149Z,104.23
2019-01-24T11:40:53.921Z,96.70
2019-01-24T11:43:24.769Z,102.50
2019-01-24T11:45:55.588Z,100.07
2019-01-24T11:48:26.369Z,98.60
2019-01-24T11:50:57.388Z,98.00
2019-01-24T11:53:28.161Z,86.27
2019-01-24T11:55:59.184Z,96.70
2019-01-24T11:58:29.963Z,102.23
2019-01-24T12:01:01.031Z,93.37
2019-01-24T12:03:32.108Z,98.57
2019-01-24T12:06:03.277Z,100.17
2019-01-24T12:08:34.291Z,99.37
2019-01-24T12:11:05.682Z,96.20
2019-01-24T12:13:36.937Z,101.33
2019-01-24T12:16:07.737Z,90.57
2019-01-24T12:18:38.537Z,100.60
2019-01-24T12:21:09.324Z,97.80
2019-01-24T12:23:40.305Z,102.30
2019-01-24T12:26:11.414Z,100.03
2019-01-24T12:28:42.416Z,95.63
2019-01-24T12:31:13.197Z,93.73
2019-01-24T12:33:43.972Z,90.17
2019-01-24T12:36:15.352Z,102.33
2019-01-24T12:38:46.106Z,94.80
2019-01-24T12:41:17.270Z,101.57
2019-01-24T12:43:48.154Z,93.13
2019-01-24T12:46:18.930Z,99.17
2019-01-24T12:48:50.037Z,98.97
2019-01-24T12:51:20.812Z,97.83
2019-01-24T12:53:51.604Z,94.50
2019-01-24T12:56:22.449Z,96.67
2019-01-24T12:58:53.414Z,92.20
2019-01-24T13:01:24.195Z,94.47
2019-01-24T13:03:54.997Z,95.50
2019-01-24T13:06:26.191Z,95.07
2019-01-24T13:08:57.033Z,92.80
2019-01-24T13:11:27.881Z,93.37
2019-01-24T13:13:58.680Z,91.20
2019-01-24T13:16:29.753Z,87.13
2019-01-24T13:19:00.616Z,90.53
2019-01-24T13:21:31.389Z,89.03
2019-01-24T13:24:02.185Z,87.83
2019-01-24T13:26:33.197Z,82.47
2019-01-24T13:29:07.237Z,88.90
2019-01-24T13:31:38.097Z,83.57
2019-01-24T13:34:09.254Z,80.00
2019-01-24T13:36:40.128Z,83.50
2019-01-24T13:39:11.605Z,85.93
2019-01-24T13:41:42.822Z,85.77
2019-01-24T13:44:13.653Z,83.37
2019-01-24T13:46:44.478Z,86.50
2019-01-24T13:49:15.563Z,73.57
2019-01-24T13:51:46.585Z,81.33
2019-01-24T13:54:17.407Z,78.97
2019-01-24T13:56:48.460Z,82.27
2019-01-24T13:59:19.297Z,79.70
2019-01-24T14:01:50.521Z,80.33
2019-01-24T14:04:25.776Z,80.97
2019-01-24T14:06:56.546Z,82.17
2019-01-24T14:09:27.563Z,83.10
2019-01-24T14:11:58.565Z,76.67
2019-01-24T14:14:29.639Z,78.13
2019-01-24T14:17:00.411Z,71.07
2019-01-24T14:19:31.563Z,76.33
2019-01-24T14:22:02.633Z,74.57
2019-01-24T14:24:34.700Z,72.57
2019-01-24T14:27:05.626Z,68.07
2019-01-24T14:29:36.503Z,66.97
2019-01-24T14:32:07.780Z,72.37
2019-01-24T14:34:39.623Z,74.13
2019-01-24T14:37:10.589Z,72.97
2019-01-24T14:39:41.948Z,74.77
2019-01-24T14:42:12.794Z,72.87
2019-01-24T14:44:43.893Z,75.37
2019-01-24T14:47:14.668Z,71.67
2019-01-24T14:49:45.736Z,78.07
2019-01-24T14:52:16.509Z,79.23
2019-01-24T14:54:47.607Z,78.07
2019-01-24T14:57:18.385Z,72.87
2019-01-24T14:59:49.321Z,75.90
2019-01-24T15:02:20.388Z,75.10
2019-01-24T15:04:51.404Z,80.00
2019-01-24T15:07:22.248Z,72.47
2019-01-24T15:09:53.349Z,76.93
2019-01-24T15:12:24.125Z,79.07
2019-01-24T15:14:55.156Z,77.47
2019-01-24T15:17:26.084Z,72.00
2019-01-24T15:19:56.865Z,76.30
2019-01-24T15:22:27.734Z,80.67
2019-01-24T15:24:58.883Z,90.00
2019-01-24T15:27:29.649Z,78.10
2019-01-24T15:30:00.667Z,72.87
2019-01-24T15:32:31.504Z,72.00
2019-01-24T15:35:02.493Z,79.70
2019-01-24T15:37:33.435Z,81.63
2019-01-24T15:40:06.881Z,71.63
2019-01-24T15:42:37.901Z,75.33
2019-01-24T15:45:10.153Z,74.73
2019-01-24T15:47:40.926Z,73.27
2019-01-24T15:50:13.275Z,73.40
2019-01-24T15:52:44.362Z,71.50
2019-01-24T15:55:15.446Z,67.87
2019-01-24T15:57:46.427Z,71.93
2019-01-24T16:00:20.559Z,72.47
2019-01-24T16:02:51.488Z,71.97
2019-01-24T16:05:22.427Z,73.30
2019-01-24T16:07:53.547Z,70.80
2019-01-24T16:10:24.678Z,68.30
2019-01-24T16:12:55.832Z,67.03
2019-01-24T16:15:31.520Z,65.27
2019-01-24T16:18:02.446Z,64.27
2019-01-24T16:20:33.315Z,65.90
2019-01-24T16:23:04.160Z,63.90
2019-01-24T16:25:35.293Z,65.83
2019-01-24T16:28:06.248Z,59.87
2019-01-24T16:30:37.789Z,59.07
2019-01-24T16:33:09.143Z,61.43
2019-01-24T16:35:40.288Z,59.67
2019-01-24T16:38:11.218Z,62.53
2019-01-24T16:40:42.096Z,67.37
2019-01-24T16:43:12.876Z,64.17
2019-01-24T16:45:43.733Z,65.10
2019-01-24T16:48:14.620Z,70.70
2019-01-24T16:50:45.636Z,64.90
2019-01-24T16:53:16.485Z,70.90
2019-01-24T16:55:48.315Z,62.80
2019-01-24T16:58:19.464Z,65.47
2019-01-24T17:01:18.088Z,61.00
2019-01-24T17:03:48.870Z,67.20
2019-01-24T17:06:19.966Z,64.77
2019-01-24T17:08:53.060Z,71.50
2019-01-24T17:11:24.104Z,66.87
2019-01-24T17:13:54.874Z,62.90
2019-01-24T17:16:25.875Z,61.63
2019-01-24T17:18:56.873Z,65.20
2019-01-24T17:21:28.095Z,61.30
2019-01-24T17:23:58.984Z,65.40
2019-01-24T17:26:29.870Z,61.00
2019-01-24T17:29:00.880Z,67.70
2019-01-24T17:31:31.969Z,62.23
2019-01-24T17:34:03.092Z,62.83
2019-01-24T17:36:33.974Z,62.43
2019-01-24T17:39:08.735Z,67.80
2019-01-24T17:41:40.479Z,72.70
2019-01-24T17:44:11.571Z,63.70
2019-01-24T17:46:42.441Z,65.73
2019-01-24T17:49:13.208Z,72.07
2019-01-24T17:51:44.073Z,68.30
2019-01-24T17:54:15.137Z,71.67
2019-01-24T17:56:46.226Z,64.37
2019-01-24T17:59:17.310Z,69.20
2019-01-24T18:01:48.404Z,71.63
2019-01-24T18:04:21.819Z,79.80
2019-01-24T18:06:51.752Z,72.63
2019-01-24T18:09:22.536Z,75.67
2019-01-24T18:11:53.338Z,83.93
2019-01-24T18:14:24.326Z,83.00
2019-01-24T18:16:55.118Z,77.27
2019-01-24T18:19:26.135Z,80.10
2019-01-24T18:21:57.261Z,75.40
2019-01-24T18:24:28.038Z,73.73
2019-01-24T18:26:59.002Z,71.20
2019-01-24T18:29:30.089Z,72.63
2019-01-24T18:32:01.379Z,68.87
2019-01-24T18:34:32.448Z,70.30
2019-01-24T18:37:03.251Z,69.37
2019-01-24T18:39:34.171Z,76.37
2019-01-24T18:42:05.110Z,72.57
2019-01-24T18:44:36.064Z,76.47
2019-01-24T18:47:07.153Z,75.40
2019-01-24T18:49:37.934Z,74.40
2019-01-24T18:52:09.032Z,75.70
2019-01-24T18:54:39.849Z,68.07
2019-01-24T18:57:10.644Z,73.23
2019-01-24T18:59:42.711Z,75.40
2019-01-24T19:02:13.765Z,73.17
2019-01-24T19:04:44.686Z,77.50
2019-01-24T19:07:15.514Z,70.13
2019-01-24T19:09:46.357Z,69.03
2019-01-24T19:12:17.585Z,72.13
2019-01-24T19:14:48.929Z,70.67
2019-01-24T19:17:20.104Z,74.07
2019-01-24T19:19:51.760Z,71.07
2019-01-24T19:22:22.773Z,74.37
2019-01-24T19:24:53.602Z,69.43
2019-01-24T19:27:24.701Z,77.60
2019-01-24T19:29:55.554Z,77.13
2019-01-24T19:32:26.420Z,73.13
2019-01-24T19:34:57.339Z,71.03
2019-01-24T19:37:28.328Z,77.03
2019-01-24T19:39:59.287Z,76.90
2019-01-24T19:42:30.081Z,70.07
2019-01-24T19:45:01.378Z,70.87
2019-01-24T19:47:32.457Z,76.87
2019-01-24T19:50:03.545Z,69.33
2019-01-24T19:52:34.384Z,74.20
2019-01-24T19:55:06.149Z,77.80
2019-01-24T19:57:37.357Z,74.23
2019-01-24T20:00:12.320Z,74.67
2019-01-24T20:02:43.405Z,74.03
2019-01-24T20:05:15.097Z,75.23
2019-01-24T20:07:46.653Z,77.13
2019-01-24T20:10:19.088Z,75.87
2019-01-24T20:12:50.003Z,76.57
2019-01-24T20:15:22.693Z,80.23
2019-01-24T20:17:53.934Z,75.77
2019-01-24T20:20:25.180Z,73.57
2019-01-24T20:22:56.238Z,73.10
2019-01-24T20:25:28.592Z,79.70
2019-01-24T20:27:59.443Z,78.27
2019-01-24T20:30:31.621Z,70.43
2019-01-24T20:33:02.832Z,73.13
2019-01-24T20:35:42.772Z,75.73
2019-01-24T20:38:13.715Z,79.70
2019-01-24T20:40:44.596Z,78.67
2019-01-24T20:43:16.153Z,77.93
2019-01-24T20:45:47.013Z,79.10
2019-01-24T20:48:18.118Z,75.73
2019-01-24T20:50:49.123Z,80.53
2019-01-24T20:53:19.989Z,80.47
2019-01-24T20:55:51.030Z,78.47
2019-01-24T20:58:22.074Z,77.57
2019-01-24T21:00:53.087Z,82.50
2019-01-24T21:03:24.259Z,75.57
2019-01-24T21:05:55.358Z,78.00
2019-01-24T21:08:26.605Z,73.53
2019-01-24T21:10:57.516Z,81.00
2019-01-24T21:13:28.302Z,84.67
2019-01-24T21:15:59.147Z,82.03
2019-01-24T21:18:30.046Z,83.27
2019-01-24T21:21:00.918Z,79.60
2019-01-24T21:23:31.953Z,74.40
2019-01-24T21:26:02.958Z,76.57
2019-01-24T21:28:33.744Z,75.87
2019-01-24T21:31:04.713Z,69.00
2019-01-24T21:33:35.977Z,69.90
2019-01-24T21:36:06.902Z,78.13
2019-01-24T21:38:37.757Z,80.47
2019-01-24T21:41:08.545Z,71.00
2019-01-24T21:43:39.586Z,73.60
2019-01-24T21:46:10.462Z,68.33
2019-01-24T21:48:41.552Z,79.73
2019-01-24T21:51:12.405Z,82.00
2019-01-24T21:53:43.405Z,86.90
2019-01-24T21:56:14.270Z,84.90
2019-01-24T21:58:45.325Z,87.23
2019-01-24T22:01:16.100Z,76.60
2019-01-24T22:03:47.126Z,77.43
2019-01-24T22:06:18.058Z,79.57
2019-01-24T22:08:48.867Z,76.63
2019-01-24T22:11:19.759Z,73.23
2019-01-24T22:13:50.815Z,80.27
2019-01-24T22:16:21.738Z,74.13
2019-01-24T22:18:53.026Z,76.10
2019-01-24T22:21:23.795Z,76.73
2019-01-24T22:23:54.593Z,74.87
2019-01-24T22:26:25.444Z,77.47
2019-01-24T22:28:56.786Z,74.83
2019-01-24T22:31:27.640Z,75.77
2019-01-24T22:33:58.497Z,72.13
2019-01-24T22:36:29.278Z,74.37
2019-01-24T22:39:00.146Z,75.90
2019-01-24T22:41:31.040Z,73.23
2019-01-24T22:44:01.845Z,72.07
2019-01-24T22:46:33.588Z,69.23
2019-01-24T22:49:04.465Z,79.33
2019-01-24T22:51:35.242Z,80.60
2019-01-24T22:54:06.481Z,84.50
2019-01-24T22:56:37.834Z,91.13
2019-01-24T22:59:08.962Z,99.93
2019-01-24T23:01:44.640Z,91.83
2019-01-24T23:04:18.169Z,80.53
2019-01-24T23:06:49.491Z,80.80
2019-01-24T23:09:22.183Z,83.20
2019-01-24T23:11:53.077Z,78.20
2019-01-24T23:14:23.941Z,83.90
2019-01-24T23:16:54.789Z,86.57
2019-01-24T23:19:25.834Z,86.63
2019-01-24T23:21:56.681Z,84.43
2019-01-24T23:24:27.480Z,79.57
2019-01-24T23:26:58.408Z,83.93
2019-01-24T23:29:29.282Z,85.70
2019-01-24T23:32:00.130Z,85.20
2019-01-24T23:34:30.998Z,84.90
2019-01-24T23:37:04.912Z,85.17
2019-01-24T23:39:36.303Z,88.83
2019-01-24T23:42:07.227Z,86.83
2019-01-24T23:44:38.157Z,87.93
2019-01-24T23:47:09.244Z,82.77
2019-01-24T23:49:40.036Z,90.33
2019-01-24T23:52:10.979Z,94.53
2019-01-24T23:54:42.059Z,85.80
2019-01-24T23:57:12.832Z,86.97
2019-01-24T23:59:43.877Z,92.30
